sensor_id;sensor_type;location;lat;lon;timestamp;P1;durP1;ratioP1;P2;durP2;ratioP2
14139;SDS011;7150;53.514;9.988;2024-01-30T00:01:40;7.17;;;5.17;;
14139;SDS011;7150;53.514;9.988;2024-01-30T00:04:06;6.83;;;4.53;;
14139;SDS011;7150;53.514;9.988;2024-01-30T00:06:31;7.47;;;4.90;;
14139;SDS011;7150;53.514;9.988;2024-01-30T00:08:57;9.53;;;5.23;;
14139;SDS011;7150;53.514;9.988;2024-01-30T00:11:23;6.83;;;4.37;;
14139;SDS011;7150;53.514;9.988;2024-01-30T00:13:50;7.87;;;5.13;;
14139;SDS011;7150;53.514;9.988;2024-01-30T00:16:20;6.83;;;4.57;;
14139;SDS011;7150;53.514;9.988;2024-01-30T00:18:46;5.77;;;4.50;;
14139;SDS011;7150;53.514;9.988;2024-01-30T00:21:12;6.33;;;4.53;;
14139;SDS011;7150;53.514;9.988;2024-01-30T00:23:38;6.77;;;4.40;;
14139;SDS011;7150;53.514;9.988;2024-01-30T00:26:03;8.60;;;4.80;;
14139;SDS011;7150;53.514;9.988;2024-01-30T00:28:30;7.13;;;4.63;;
14139;SDS011;7150;53.514;9.988;2024-01-30T00:30:55;7.77;;;4.70;;
14139;SDS011;7150;53.514;9.988;2024-01-30T00:33:21;8.33;;;5.50;;
14139;SDS011;7150;53.514;9.988;2024-01-30T00:35:46;7.00;;;4.73;;
14139;SDS011;7150;53.514;9.988;2024-01-30T00:38:12;6.83;;;4.77;;
14139;SDS011;7150;53.514;9.988;2024-01-30T00:40:37;7.97;;;4.90;;
14139;SDS011;7150;53.514;9.988;2024-01-30T00:43:03;8.77;;;4.87;;
14139;SDS011;7150;53.514;9.988;2024-01-30T00:45:28;7.07;;;4.60;;
14139;SDS011;7150;53.514;9.988;2024-01-30T00:47:54;6.70;;;4.73;;
14139;SDS011;7150;53.514;9.988;2024-01-30T00:50:19;7.70;;;5.03;;
14139;SDS011;7150;53.514;9.988;2024-01-30T00:52:45;6.57;;;4.37;;
14139;SDS011;7150;53.514;9.988;2024-01-30T00:55:11;5.57;;;4.33;;
14139;SDS011;7150;53.514;9.988;2024-01-30T00:57:36;6.80;;;4.67;;
14139;SDS011;7150;53.514;9.988;2024-01-30T01:00:02;6.37;;;4.43;;
14139;SDS011;7150;53.514;9.988;2024-01-30T01:02:28;7.43;;;4.50;;
14139;SDS011;7150;53.514;9.988;2024-01-30T01:04:54;6.43;;;4.10;;
14139;SDS011;7150;53.514;9.988;2024-01-30T01:07:19;6.77;;;4.80;;
14139;SDS011;7150;53.514;9.988;2024-01-30T01:09:44;8.17;;;4.93;;
14139;SDS011;7150;53.514;9.988;2024-01-30T01:12:10;6.20;;;4.33;;
14139;SDS011;7150;53.514;9.988;2024-01-30T01:14:35;6.20;;;4.33;;
14139;SDS011;7150;53.514;9.988;2024-01-30T01:17:01;8.00;;;4.50;;
14139;SDS011;7150;53.514;9.988;2024-01-30T01:19:27;8.57;;;4.77;;
14139;SDS011;7150;53.514;9.988;2024-01-30T01:21:52;5.93;;;4.30;;
14139;SDS011;7150;53.514;9.988;2024-01-30T01:24:18;6.87;;;3.90;;
14139;SDS011;7150;53.514;9.988;2024-01-30T01:26:43;5.47;;;3.97;;
14139;SDS011;7150;53.514;9.988;2024-01-30T01:29:09;6.63;;;4.97;;
14139;SDS011;7150;53.514;9.988;2024-01-30T01:31:36;7.53;;;4.53;;
14139;SDS011;7150;53.514;9.988;2024-01-30T01:34:11;6.00;;;4.47;;
14139;SDS011;7150;53.514;9.988;2024-01-30T01:36:37;6.90;;;4.60;;
14139;SDS011;7150;53.514;9.988;2024-01-30T01:39:03;5.83;;;4.10;;
14139;SDS011;7150;53.514;9.988;2024-01-30T01:41:30;5.20;;;4.13;;
14139;SDS011;7150;53.514;9.988;2024-01-30T01:43:56;5.93;;;3.87;;
14139;SDS011;7150;53.514;9.988;2024-01-30T01:46:22;5.73;;;4.20;;
14139;SDS011;7150;53.514;9.988;2024-01-30T01:48:48;7.87;;;4.77;;
14139;SDS011;7150;53.514;9.988;2024-01-30T01:51:14;6.13;;;4.50;;
14139;SDS011;7150;53.514;9.988;2024-01-30T01:53:40;6.80;;;4.40;;
14139;SDS011;7150;53.514;9.988;2024-01-30T01:56:06;6.43;;;4.33;;
14139;SDS011;7150;53.514;9.988;2024-01-30T01:58:32;6.97;;;4.27;;
14139;SDS011;7150;53.514;9.988;2024-01-30T02:00:57;5.83;;;4.20;;
14139;SDS011;7150;53.514;9.988;2024-01-30T02:03:24;7.30;;;4.33;;
14139;SDS011;7150;53.514;9.988;2024-01-30T02:05:50;5.87;;;4.10;;
14139;SDS011;7150;53.514;9.988;2024-01-30T02:08:16;5.10;;;3.90;;
14139;SDS011;7150;53.514;9.988;2024-01-30T02:10:42;6.20;;;3.83;;
14139;SDS011;7150;53.514;9.988;2024-01-30T02:13:07;5.10;;;4.00;;
14139;SDS011;7150;53.514;9.988;2024-01-30T02:15:33;6.77;;;4.03;;
14139;SDS011;7150;53.514;9.988;2024-01-30T02:17:58;5.53;;;4.17;;
14139;SDS011;7150;53.514;9.988;2024-01-30T02:20:24;7.20;;;4.83;;
14139;SDS011;7150;53.514;9.988;2024-01-30T02:22:51;6.33;;;4.47;;
14139;SDS011;7150;53.514;9.988;2024-01-30T02:25:29;5.47;;;3.73;;
14139;SDS011;7150;53.514;9.988;2024-01-30T02:27:55;7.00;;;4.33;;
14139;SDS011;7150;53.514;9.988;2024-01-30T02:30:21;7.00;;;4.57;;
14139;SDS011;7150;53.514;9.988;2024-01-30T02:32:46;5.30;;;4.23;;
14139;SDS011;7150;53.514;9.988;2024-01-30T02:35:12;7.77;;;4.20;;
14139;SDS011;7150;53.514;9.988;2024-01-30T02:37:37;5.67;;;4.17;;
14139;SDS011;7150;53.514;9.988;2024-01-30T02:40:03;8.70;;;5.17;;
14139;SDS011;7150;53.514;9.988;2024-01-30T02:42:29;5.80;;;4.60;;
14139;SDS011;7150;53.514;9.988;2024-01-30T02:44:55;7.33;;;4.43;;
14139;SDS011;7150;53.514;9.988;2024-01-30T02:47:20;6.43;;;4.33;;
14139;SDS011;7150;53.514;9.988;2024-01-30T02:49:46;6.17;;;4.27;;
14139;SDS011;7150;53.514;9.988;2024-01-30T02:52:11;4.77;;;3.70;;
14139;SDS011;7150;53.514;9.988;2024-01-30T02:54:36;4.83;;;3.80;;
14139;SDS011;7150;53.514;9.988;2024-01-30T02:57:02;4.90;;;3.53;;
14139;SDS011;7150;53.514;9.988;2024-01-30T02:59:27;7.47;;;3.80;;
14139;SDS011;7150;53.514;9.988;2024-01-30T03:01:53;5.10;;;3.77;;
14139;SDS011;7150;53.514;9.988;2024-01-30T03:04:18;7.37;;;4.13;;
14139;SDS011;7150;53.514;9.988;2024-01-30T03:06:44;5.37;;;4.10;;
14139;SDS011;7150;53.514;9.988;2024-01-30T03:09:12;7.03;;;4.83;;
14139;SDS011;7150;53.514;9.988;2024-01-30T03:11:37;6.00;;;4.10;;
14139;SDS011;7150;53.514;9.988;2024-01-30T03:14:03;5.20;;;3.77;;
14139;SDS011;7150;53.514;9.988;2024-01-30T03:16:29;8.60;;;4.20;;
14139;SDS011;7150;53.514;9.988;2024-01-30T03:18:54;7.03;;;4.70;;
14139;SDS011;7150;53.514;9.988;2024-01-30T03:21:20;6.37;;;4.47;;
14139;SDS011;7150;53.514;9.988;2024-01-30T03:23:45;5.77;;;3.83;;
14139;SDS011;7150;53.514;9.988;2024-01-30T03:26:11;6.57;;;4.33;;
14139;SDS011;7150;53.514;9.988;2024-01-30T03:28:37;7.20;;;4.37;;
14139;SDS011;7150;53.514;9.988;2024-01-30T03:31:03;7.63;;;4.57;;
14139;SDS011;7150;53.514;9.988;2024-01-30T03:33:28;7.87;;;4.60;;
14139;SDS011;7150;53.514;9.988;2024-01-30T03:35:54;8.27;;;4.40;;
14139;SDS011;7150;53.514;9.988;2024-01-30T03:38:19;6.43;;;4.47;;
14139;SDS011;7150;53.514;9.988;2024-01-30T03:40:45;6.83;;;4.33;;
14139;SDS011;7150;53.514;9.988;2024-01-30T03:43:10;6.07;;;4.17;;
14139;SDS011;7150;53.514;9.988;2024-01-30T03:45:36;7.30;;;4.80;;
14139;SDS011;7150;53.514;9.988;2024-01-30T03:48:01;7.17;;;4.67;;
14139;SDS011;7150;53.514;9.988;2024-01-30T03:50:27;7.23;;;5.13;;
14139;SDS011;7150;53.514;9.988;2024-01-30T03:52:53;7.93;;;5.20;;
14139;SDS011;7150;53.514;9.988;2024-01-30T03:55:18;7.27;;;4.57;;
14139;SDS011;7150;53.514;9.988;2024-01-30T03:57:44;5.97;;;4.40;;
14139;SDS011;7150;53.514;9.988;2024-01-30T04:00:10;7.17;;;4.27;;
14139;SDS011;7150;53.514;9.988;2024-01-30T04:02:35;6.40;;;4.73;;
14139;SDS011;7150;53.514;9.988;2024-01-30T04:05:01;6.07;;;4.70;;
14139;SDS011;7150;53.514;9.988;2024-01-30T04:07:26;6.30;;;4.20;;
14139;SDS011;7150;53.514;9.988;2024-01-30T04:09:52;7.37;;;4.73;;
14139;SDS011;7150;53.514;9.988;2024-01-30T04:12:17;7.53;;;4.93;;
14139;SDS011;7150;53.514;9.988;2024-01-30T04:14:43;8.37;;;4.90;;
14139;SDS011;7150;53.514;9.988;2024-01-30T04:17:08;7.57;;;5.40;;
14139;SDS011;7150;53.514;9.988;2024-01-30T04:19:36;8.43;;;5.60;;
14139;SDS011;7150;53.514;9.988;2024-01-30T04:22:03;8.90;;;5.27;;
14139;SDS011;7150;53.514;9.988;2024-01-30T04:24:28;10.03;;;5.87;;
14139;SDS011;7150;53.514;9.988;2024-01-30T04:26:54;8.30;;;5.33;;
14139;SDS011;7150;53.514;9.988;2024-01-30T04:29:19;7.77;;;5.00;;
14139;SDS011;7150;53.514;9.988;2024-01-30T04:31:45;7.70;;;4.50;;
14139;SDS011;7150;53.514;9.988;2024-01-30T04:34:10;8.53;;;5.17;;
14139;SDS011;7150;53.514;9.988;2024-01-30T04:36:36;7.03;;;4.80;;
14139;SDS011;7150;53.514;9.988;2024-01-30T04:39:01;6.43;;;4.70;;
14139;SDS011;7150;53.514;9.988;2024-01-30T04:41:27;6.43;;;4.67;;
14139;SDS011;7150;53.514;9.988;2024-01-30T04:43:56;7.87;;;5.37;;
14139;SDS011;7150;53.514;9.988;2024-01-30T04:46:21;9.67;;;6.03;;
14139;SDS011;7150;53.514;9.988;2024-01-30T04:48:47;8.77;;;5.87;;
14139;SDS011;7150;53.514;9.988;2024-01-30T04:51:12;9.10;;;5.10;;
14139;SDS011;7150;53.514;9.988;2024-01-30T04:53:38;9.40;;;5.83;;
14139;SDS011;7150;53.514;9.988;2024-01-30T04:56:05;7.27;;;5.27;;
14139;SDS011;7150;53.514;9.988;2024-01-30T04:58:30;8.37;;;4.60;;
14139;SDS011;7150;53.514;9.988;2024-01-30T05:00:56;8.20;;;5.40;;
14139;SDS011;7150;53.514;9.988;2024-01-30T05:03:21;8.87;;;5.50;;
14139;SDS011;7150;53.514;9.988;2024-01-30T05:05:48;6.63;;;4.77;;
14139;SDS011;7150;53.514;9.988;2024-01-30T05:08:14;7.60;;;5.30;;
14139;SDS011;7150;53.514;9.988;2024-01-30T05:10:39;8.77;;;5.10;;
14139;SDS011;7150;53.514;9.988;2024-01-30T05:13:05;7.33;;;5.37;;
14139;SDS011;7150;53.514;9.988;2024-01-30T05:15:30;8.10;;;5.37;;
14139;SDS011;7150;53.514;9.988;2024-01-30T05:17:56;9.17;;;5.93;;
14139;SDS011;7150;53.514;9.988;2024-01-30T05:20:21;8.80;;;6.03;;
14139;SDS011;7150;53.514;9.988;2024-01-30T05:22:47;8.47;;;5.63;;
14139;SDS011;7150;53.514;9.988;2024-01-30T05:25:12;7.77;;;5.57;;
14139;SDS011;7150;53.514;9.988;2024-01-30T05:27:38;8.97;;;5.80;;
14139;SDS011;7150;53.514;9.988;2024-01-30T05:30:05;9.43;;;6.33;;
14139;SDS011;7150;53.514;9.988;2024-01-30T05:32:31;9.83;;;5.70;;
14139;SDS011;7150;53.514;9.988;2024-01-30T05:34:57;7.30;;;5.23;;
14139;SDS011;7150;53.514;9.988;2024-01-30T05:37:22;8.73;;;5.50;;
14139;SDS011;7150;53.514;9.988;2024-01-30T05:39:48;6.53;;;5.33;;
14139;SDS011;7150;53.514;9.988;2024-01-30T05:42:13;7.07;;;5.27;;
14139;SDS011;7150;53.514;9.988;2024-01-30T05:44:39;7.37;;;4.80;;
14139;SDS011;7150;53.514;9.988;2024-01-30T05:47:05;7.40;;;5.07;;
14139;SDS011;7150;53.514;9.988;2024-01-30T05:49:31;8.13;;;5.30;;
14139;SDS011;7150;53.514;9.988;2024-01-30T05:51:56;7.20;;;5.27;;
14139;SDS011;7150;53.514;9.988;2024-01-30T05:54:22;9.80;;;5.43;;
14139;SDS011;7150;53.514;9.988;2024-01-30T05:56:47;11.10;;;5.93;;
14139;SDS011;7150;53.514;9.988;2024-01-30T05:59:13;7.73;;;6.03;;
14139;SDS011;7150;53.514;9.988;2024-01-30T06:01:44;9.30;;;5.90;;
14139;SDS011;7150;53.514;9.988;2024-01-30T06:04:11;8.33;;;5.87;;
14139;SDS011;7150;53.514;9.988;2024-01-30T06:06:36;8.40;;;6.03;;
14139;SDS011;7150;53.514;9.988;2024-01-30T06:09:02;7.90;;;5.87;;
14139;SDS011;7150;53.514;9.988;2024-01-30T06:11:27;8.17;;;6.27;;
14139;SDS011;7150;53.514;9.988;2024-01-30T06:13:53;8.93;;;6.03;;
14139;SDS011;7150;53.514;9.988;2024-01-30T06:16:18;9.50;;;6.63;;
14139;SDS011;7150;53.514;9.988;2024-01-30T06:18:46;9.83;;;6.43;;
14139;SDS011;7150;53.514;9.988;2024-01-30T06:21:12;9.40;;;6.60;;
14139;SDS011;7150;53.514;9.988;2024-01-30T06:23:38;9.90;;;5.60;;
14139;SDS011;7150;53.514;9.988;2024-01-30T06:26:03;8.10;;;5.80;;
14139;SDS011;7150;53.514;9.988;2024-01-30T06:28:29;9.33;;;6.13;;
14139;SDS011;7150;53.514;9.988;2024-01-30T06:30:55;8.37;;;5.57;;
14139;SDS011;7150;53.514;9.988;2024-01-30T06:33:21;10.00;;;6.13;;
14139;SDS011;7150;53.514;9.988;2024-01-30T06:35:46;8.60;;;5.57;;
14139;SDS011;7150;53.514;9.988;2024-01-30T06:38:12;9.00;;;6.57;;
14139;SDS011;7150;53.514;9.988;2024-01-30T06:40:38;9.43;;;6.20;;
14139;SDS011;7150;53.514;9.988;2024-01-30T06:43:04;8.67;;;6.23;;
14139;SDS011;7150;53.514;9.988;2024-01-30T06:45:30;8.87;;;6.20;;
14139;SDS011;7150;53.514;9.988;2024-01-30T06:47:55;10.97;;;6.87;;
14139;SDS011;7150;53.514;9.988;2024-01-30T06:50:21;9.80;;;6.00;;
14139;SDS011;7150;53.514;9.988;2024-01-30T06:52:46;9.33;;;6.30;;
14139;SDS011;7150;53.514;9.988;2024-01-30T06:55:11;9.53;;;6.77;;
14139;SDS011;7150;53.514;9.988;2024-01-30T06:57:37;10.20;;;6.33;;
14139;SDS011;7150;53.514;9.988;2024-01-30T07:00:03;8.27;;;6.17;;
14139;SDS011;7150;53.514;9.988;2024-01-30T07:02:28;8.73;;;6.43;;
14139;SDS011;7150;53.514;9.988;2024-01-30T07:04:54;7.60;;;5.60;;
14139;SDS011;7150;53.514;9.988;2024-01-30T07:07:19;8.70;;;5.60;;
14139;SDS011;7150;53.514;9.988;2024-01-30T07:09:45;9.97;;;6.27;;
14139;SDS011;7150;53.514;9.988;2024-01-30T07:12:12;7.40;;;5.67;;
14139;SDS011;7150;53.514;9.988;2024-01-30T07:14:38;8.33;;;6.13;;
14139;SDS011;7150;53.514;9.988;2024-01-30T07:17:03;8.47;;;6.33;;
14139;SDS011;7150;53.514;9.988;2024-01-30T07:19:29;7.20;;;6.03;;
14139;SDS011;7150;53.514;9.988;2024-01-30T07:21:54;8.27;;;6.10;;
14139;SDS011;7150;53.514;9.988;2024-01-30T07:24:20;8.23;;;5.73;;
14139;SDS011;7150;53.514;9.988;2024-01-30T07:26:45;9.27;;;6.17;;
14139;SDS011;7150;53.514;9.988;2024-01-30T07:29:11;8.17;;;6.07;;
14139;SDS011;7150;53.514;9.988;2024-01-30T07:31:36;8.17;;;5.83;;
14139;SDS011;7150;53.514;9.988;2024-01-30T07:34:02;7.53;;;5.77;;
14139;SDS011;7150;53.514;9.988;2024-01-30T07:36:27;10.20;;;5.93;;
14139;SDS011;7150;53.514;9.988;2024-01-30T07:38:53;12.03;;;6.40;;
14139;SDS011;7150;53.514;9.988;2024-01-30T07:41:19;11.83;;;7.03;;
14139;SDS011;7150;53.514;9.988;2024-01-30T07:43:45;13.03;;;7.30;;
14139;SDS011;7150;53.514;9.988;2024-01-30T07:46:10;12.70;;;7.87;;
14139;SDS011;7150;53.514;9.988;2024-01-30T07:48:36;12.50;;;7.53;;
14139;SDS011;7150;53.514;9.988;2024-01-30T07:51:01;9.90;;;6.80;;
14139;SDS011;7150;53.514;9.988;2024-01-30T07:53:28;8.90;;;6.50;;
14139;SDS011;7150;53.514;9.988;2024-01-30T07:55:54;9.87;;;7.20;;
14139;SDS011;7150;53.514;9.988;2024-01-30T07:58:19;10.27;;;7.73;;
14139;SDS011;7150;53.514;9.988;2024-01-30T08:00:45;9.10;;;6.77;;
14139;SDS011;7150;53.514;9.988;2024-01-30T08:03:10;12.23;;;6.70;;
14139;SDS011;7150;53.514;9.988;2024-01-30T08:05:36;10.57;;;7.17;;
14139;SDS011;7150;53.514;9.988;2024-01-30T08:08:04;12.40;;;7.53;;
14139;SDS011;7150;53.514;9.988;2024-01-30T08:10:29;10.27;;;7.33;;
14139;SDS011;7150;53.514;9.988;2024-01-30T08:12:55;10.20;;;6.93;;
14139;SDS011;7150;53.514;9.988;2024-01-30T08:15:20;10.77;;;7.37;;
14139;SDS011;7150;53.514;9.988;2024-01-30T08:17:46;9.77;;;6.57;;
14139;SDS011;7150;53.514;9.988;2024-01-30T08:20:11;11.73;;;7.13;;
14139;SDS011;7150;53.514;9.988;2024-01-30T08:22:40;11.67;;;7.80;;
14139;SDS011;7150;53.514;9.988;2024-01-30T08:25:06;12.00;;;7.70;;
14139;SDS011;7150;53.514;9.988;2024-01-30T08:27:33;11.40;;;7.10;;
14139;SDS011;7150;53.514;9.988;2024-01-30T08:30:00;12.77;;;7.67;;
14139;SDS011;7150;53.514;9.988;2024-01-30T08:32:26;12.37;;;7.60;;
14139;SDS011;7150;53.514;9.988;2024-01-30T08:34:52;11.60;;;7.40;;
14139;SDS011;7150;53.514;9.988;2024-01-30T08:37:17;10.07;;;7.00;;
14139;SDS011;7150;53.514;9.988;2024-01-30T08:39:43;11.47;;;6.90;;
14139;SDS011;7150;53.514;9.988;2024-01-30T08:42:09;10.60;;;7.30;;
14139;SDS011;7150;53.514;9.988;2024-01-30T08:44:35;16.07;;;7.57;;
14139;SDS011;7150;53.514;9.988;2024-01-30T08:47:00;9.17;;;6.33;;
14139;SDS011;7150;53.514;9.988;2024-01-30T08:49:26;8.83;;;6.47;;
14139;SDS011;7150;53.514;9.988;2024-01-30T08:51:51;10.17;;;6.63;;
14139;SDS011;7150;53.514;9.988;2024-01-30T08:54:17;12.20;;;7.57;;
14139;SDS011;7150;53.514;9.988;2024-01-30T08:56:43;11.73;;;7.13;;
14139;SDS011;7150;53.514;9.988;2024-01-30T08:59:09;11.17;;;7.07;;
14139;SDS011;7150;53.514;9.988;2024-01-30T09:01:34;10.73;;;7.13;;
14139;SDS011;7150;53.514;9.988;2024-01-30T09:04:00;12.33;;;7.23;;
14139;SDS011;7150;53.514;9.988;2024-01-30T09:06:25;11.07;;;7.30;;
14139;SDS011;7150;53.514;9.988;2024-01-30T09:08:53;11.77;;;7.27;;
14139;SDS011;7150;53.514;9.988;2024-01-30T09:11:18;9.27;;;6.33;;
14139;SDS011;7150;53.514;9.988;2024-01-30T09:13:44;9.50;;;6.47;;
14139;SDS011;7150;53.514;9.988;2024-01-30T09:16:09;11.33;;;7.43;;
14139;SDS011;7150;53.514;9.988;2024-01-30T09:18:35;9.97;;;7.03;;
14139;SDS011;7150;53.514;9.988;2024-01-30T09:21:01;11.67;;;7.70;;
14139;SDS011;7150;53.514;9.988;2024-01-30T09:23:29;10.47;;;7.23;;
14139;SDS011;7150;53.514;9.988;2024-01-30T09:25:55;11.87;;;7.80;;
14139;SDS011;7150;53.514;9.988;2024-01-30T09:28:20;11.20;;;7.63;;
14139;SDS011;7150;53.514;9.988;2024-01-30T09:30:46;10.17;;;7.00;;
14139;SDS011;7150;53.514;9.988;2024-01-30T09:33:11;10.97;;;7.30;;
14139;SDS011;7150;53.514;9.988;2024-01-30T09:35:37;10.47;;;6.70;;
14139;SDS011;7150;53.514;9.988;2024-01-30T09:38:03;14.47;;;8.03;;
14139;SDS011;7150;53.514;9.988;2024-01-30T09:40:28;12.17;;;8.00;;
14139;SDS011;7150;53.514;9.988;2024-01-30T09:42:54;9.90;;;6.70;;
14139;SDS011;7150;53.514;9.988;2024-01-30T09:45:23;10.53;;;7.60;;
14139;SDS011;7150;53.514;9.988;2024-01-30T09:47:49;10.37;;;6.97;;
14139;SDS011;7150;53.514;9.988;2024-01-30T09:50:15;12.63;;;7.73;;
14139;SDS011;7150;53.514;9.988;2024-01-30T09:52:45;12.20;;;8.17;;
14139;SDS011;7150;53.514;9.988;2024-01-30T09:55:14;11.17;;;8.47;;
14139;SDS011;7150;53.514;9.988;2024-01-30T09:57:41;12.40;;;8.07;;
14139;SDS011;7150;53.514;9.988;2024-01-30T10:00:07;11.53;;;7.30;;
14139;SDS011;7150;53.514;9.988;2024-01-30T10:02:33;12.23;;;7.77;;
14139;SDS011;7150;53.514;9.988;2024-01-30T10:04:59;10.37;;;7.63;;
14139;SDS011;7150;53.514;9.988;2024-01-30T10:07:25;10.47;;;7.20;;
14139;SDS011;7150;53.514;9.988;2024-01-30T10:09:51;10.70;;;7.13;;
14139;SDS011;7150;53.514;9.988;2024-01-30T10:12:18;11.27;;;7.67;;
14139;SDS011;7150;53.514;9.988;2024-01-30T10:14:44;11.00;;;7.33;;
14139;SDS011;7150;53.514;9.988;2024-01-30T10:17:09;9.43;;;6.70;;
14139;SDS011;7150;53.514;9.988;2024-01-30T10:19:36;11.73;;;7.30;;
14139;SDS011;7150;53.514;9.988;2024-01-30T10:22:05;9.17;;;6.70;;
14139;SDS011;7150;53.514;9.988;2024-01-30T10:24:30;8.87;;;7.50;;
14139;SDS011;7150;53.514;9.988;2024-01-30T10:26:58;11.90;;;7.23;;
14139;SDS011;7150;53.514;9.988;2024-01-30T10:29:23;9.87;;;7.17;;
14139;SDS011;7150;53.514;9.988;2024-01-30T10:32:02;11.17;;;7.97;;
14139;SDS011;7150;53.514;9.988;2024-01-30T10:34:29;11.13;;;7.30;;
14139;SDS011;7150;53.514;9.988;2024-01-30T10:36:59;9.33;;;6.90;;
14139;SDS011;7150;53.514;9.988;2024-01-30T10:39:31;11.20;;;7.07;;
14139;SDS011;7150;53.514;9.988;2024-01-30T10:42:03;10.10;;;7.33;;
14139;SDS011;7150;53.514;9.988;2024-01-30T10:44:33;9.27;;;6.37;;
14139;SDS011;7150;53.514;9.988;2024-01-30T10:47:10;10.73;;;6.93;;
14139;SDS011;7150;53.514;9.988;2024-01-30T10:49:38;10.87;;;6.90;;
14139;SDS011;7150;53.514;9.988;2024-01-30T10:52:05;9.83;;;7.10;;
14139;SDS011;7150;53.514;9.988;2024-01-30T10:54:32;8.87;;;6.80;;
14139;SDS011;7150;53.514;9.988;2024-01-30T10:57:00;10.03;;;6.80;;
14139;SDS011;7150;53.514;9.988;2024-01-30T10:59:28;9.10;;;6.43;;
14139;SDS011;7150;53.514;9.988;2024-01-30T11:01:55;10.03;;;6.27;;
14139;SDS011;7150;53.514;9.988;2024-01-30T11:04:22;9.50;;;6.47;;
14139;SDS011;7150;53.514;9.988;2024-01-30T11:06:50;7.27;;;5.60;;
14139;SDS011;7150;53.514;9.988;2024-01-30T11:09:17;10.70;;;5.80;;
14139;SDS011;7150;53.514;9.988;2024-01-30T11:14:14;12.07;;;6.03;;
14139;SDS011;7150;53.514;9.988;2024-01-30T11:16:40;9.10;;;6.60;;
14139;SDS011;7150;53.514;9.988;2024-01-30T11:19:05;10.47;;;6.87;;
14139;SDS011;7150;53.514;9.988;2024-01-30T11:21:41;9.97;;;6.33;;
14139;SDS011;7150;53.514;9.988;2024-01-30T11:24:07;9.13;;;6.30;;
14139;SDS011;7150;53.514;9.988;2024-01-30T11:26:33;7.30;;;5.33;;
14139;SDS011;7150;53.514;9.988;2024-01-30T11:28:59;7.73;;;5.77;;
14139;SDS011;7150;53.514;9.988;2024-01-30T11:31:28;10.23;;;6.50;;
14139;SDS011;7150;53.514;9.988;2024-01-30T11:33:54;8.30;;;6.20;;
14139;SDS011;7150;53.514;9.988;2024-01-30T11:36:21;11.53;;;7.10;;
14139;SDS011;7150;53.514;9.988;2024-01-30T11:38:50;11.20;;;6.67;;
14139;SDS011;7150;53.514;9.988;2024-01-30T11:41:16;7.97;;;5.40;;
14139;SDS011;7150;53.514;9.988;2024-01-30T11:43:42;9.90;;;6.50;;
14139;SDS011;7150;53.514;9.988;2024-01-30T11:46:15;8.57;;;6.07;;
14139;SDS011;7150;53.514;9.988;2024-01-30T11:48:41;9.77;;;6.13;;
14139;SDS011;7150;53.514;9.988;2024-01-30T11:51:06;8.40;;;6.03;;
14139;SDS011;7150;53.514;9.988;2024-01-30T11:53:32;9.40;;;6.10;;
14139;SDS011;7150;53.514;9.988;2024-01-30T11:55:57;8.77;;;6.17;;
14139;SDS011;7150;53.514;9.988;2024-01-30T11:58:24;8.00;;;6.10;;
14139;SDS011;7150;53.514;9.988;2024-01-30T12:00:56;8.80;;;5.97;;
14139;SDS011;7150;53.514;9.988;2024-01-30T12:03:22;10.13;;;6.47;;
14139;SDS011;7150;53.514;9.988;2024-01-30T12:05:54;10.20;;;6.90;;
14139;SDS011;7150;53.514;9.988;2024-01-30T12:08:22;9.77;;;6.70;;
14139;SDS011;7150;53.514;9.988;2024-01-30T12:10:54;9.63;;;6.67;;
14139;SDS011;7150;53.514;9.988;2024-01-30T12:13:21;9.20;;;6.80;;
14139;SDS011;7150;53.514;9.988;2024-01-30T12:15:47;12.10;;;6.20;;
14139;SDS011;7150;53.514;9.988;2024-01-30T12:18:12;9.33;;;6.47;;
14139;SDS011;7150;53.514;9.988;2024-01-30T12:20:38;8.43;;;6.57;;
14139;SDS011;7150;53.514;9.988;2024-01-30T12:23:03;9.23;;;6.23;;
14139;SDS011;7150;53.514;9.988;2024-01-30T12:25:29;8.13;;;6.33;;
14139;SDS011;7150;53.514;9.988;2024-01-30T12:27:54;9.73;;;6.20;;
14139;SDS011;7150;53.514;9.988;2024-01-30T12:30:20;9.27;;;6.43;;
14139;SDS011;7150;53.514;9.988;2024-01-30T12:32:46;10.70;;;5.70;;
14139;SDS011;7150;53.514;9.988;2024-01-30T12:35:14;8.30;;;5.73;;
14139;SDS011;7150;53.514;9.988;2024-01-30T12:37:42;9.50;;;5.60;;
14139;SDS011;7150;53.514;9.988;2024-01-30T12:40:09;9.40;;;5.10;;
14139;SDS011;7150;53.514;9.988;2024-01-30T12:42:36;6.87;;;4.93;;
14139;SDS011;7150;53.514;9.988;2024-01-30T12:45:02;7.90;;;5.13;;
14139;SDS011;7150;53.514;9.988;2024-01-30T12:47:29;6.77;;;5.20;;
14139;SDS011;7150;53.514;9.988;2024-01-30T12:49:54;8.40;;;5.73;;
14139;SDS011;7150;53.514;9.988;2024-01-30T12:52:20;8.10;;;5.43;;
14139;SDS011;7150;53.514;9.988;2024-01-30T12:54:47;7.90;;;5.40;;
14139;SDS011;7150;53.514;9.988;2024-01-30T12:57:13;8.80;;;5.40;;
14139;SDS011;7150;53.514;9.988;2024-01-30T12:59:39;8.00;;;6.13;;
14139;SDS011;7150;53.514;9.988;2024-01-30T13:02:04;8.13;;;5.80;;
14139;SDS011;7150;53.514;9.988;2024-01-30T13:04:30;6.93;;;5.30;;
14139;SDS011;7150;53.514;9.988;2024-01-30T13:06:56;7.87;;;5.30;;
14139;SDS011;7150;53.514;9.988;2024-01-30T13:09:22;8.47;;;5.27;;
14139;SDS011;7150;53.514;9.988;2024-01-30T13:11:48;6.53;;;4.93;;
14139;SDS011;7150;53.514;9.988;2024-01-30T13:14:14;7.20;;;5.37;;
14139;SDS011;7150;53.514;9.988;2024-01-30T13:16:39;7.77;;;5.10;;
14139;SDS011;7150;53.514;9.988;2024-01-30T13:19:05;10.13;;;5.33;;
14139;SDS011;7150;53.514;9.988;2024-01-30T13:21:31;10.07;;;5.93;;
14139;SDS011;7150;53.514;9.988;2024-01-30T13:23:56;6.67;;;5.17;;
14139;SDS011;7150;53.514;9.988;2024-01-30T13:26:21;7.13;;;4.80;;
14139;SDS011;7150;53.514;9.988;2024-01-30T13:28:47;9.80;;;5.90;;
14139;SDS011;7150;53.514;9.988;2024-01-30T13:31:13;9.33;;;5.33;;
14139;SDS011;7150;53.514;9.988;2024-01-30T13:33:39;7.43;;;4.83;;
14139;SDS011;7150;53.514;9.988;2024-01-30T13:36:06;9.83;;;5.00;;
14139;SDS011;7150;53.514;9.988;2024-01-30T13:38:32;7.57;;;5.27;;
14139;SDS011;7150;53.514;9.988;2024-01-30T13:40:58;8.83;;;5.03;;
14139;SDS011;7150;53.514;9.988;2024-01-30T13:43:24;7.37;;;5.00;;
14139;SDS011;7150;53.514;9.988;2024-01-30T13:45:49;8.80;;;5.30;;
14139;SDS011;7150;53.514;9.988;2024-01-30T13:48:15;9.63;;;5.77;;
14139;SDS011;7150;53.514;9.988;2024-01-30T13:50:40;8.43;;;5.10;;
14139;SDS011;7150;53.514;9.988;2024-01-30T13:53:06;7.77;;;5.17;;
14139;SDS011;7150;53.514;9.988;2024-01-30T13:55:31;6.83;;;5.33;;
14139;SDS011;7150;53.514;9.988;2024-01-30T13:57:57;8.80;;;5.87;;
14139;SDS011;7150;53.514;9.988;2024-01-30T14:00:22;7.03;;;5.17;;
14139;SDS011;7150;53.514;9.988;2024-01-30T14:02:50;6.77;;;4.77;;
14139;SDS011;7150;53.514;9.988;2024-01-30T14:05:15;7.07;;;5.17;;
14139;SDS011;7150;53.514;9.988;2024-01-30T14:07:41;9.50;;;6.00;;
14139;SDS011;7150;53.514;9.988;2024-01-30T14:10:09;9.37;;;5.67;;
14139;SDS011;7150;53.514;9.988;2024-01-30T14:12:36;8.40;;;5.40;;
14139;SDS011;7150;53.514;9.988;2024-01-30T14:15:01;9.07;;;5.30;;
14139;SDS011;7150;53.514;9.988;2024-01-30T14:17:27;10.07;;;5.90;;
14139;SDS011;7150;53.514;9.988;2024-01-30T14:19:52;8.23;;;5.13;;
14139;SDS011;7150;53.514;9.988;2024-01-30T14:22:18;9.87;;;5.43;;
14139;SDS011;7150;53.514;9.988;2024-01-30T14:24:43;7.70;;;5.37;;
14139;SDS011;7150;53.514;9.988;2024-01-30T14:27:09;9.00;;;5.93;;
14139;SDS011;7150;53.514;9.988;2024-01-30T14:29:35;8.27;;;5.23;;
14139;SDS011;7150;53.514;9.988;2024-01-30T14:32:01;8.87;;;5.10;;
14139;SDS011;7150;53.514;9.988;2024-01-30T14:34:26;9.17;;;5.77;;
14139;SDS011;7150;53.514;9.988;2024-01-30T14:36:52;6.73;;;4.97;;
14139;SDS011;7150;53.514;9.988;2024-01-30T14:39:18;10.17;;;5.20;;
14139;SDS011;7150;53.514;9.988;2024-01-30T14:41:43;6.03;;;4.90;;
14139;SDS011;7150;53.514;9.988;2024-01-30T14:44:09;6.80;;;4.90;;
14139;SDS011;7150;53.514;9.988;2024-01-30T14:46:35;8.00;;;5.07;;
14139;SDS011;7150;53.514;9.988;2024-01-30T14:49:02;8.97;;;5.77;;
14139;SDS011;7150;53.514;9.988;2024-01-30T14:51:30;7.40;;;4.93;;
14139;SDS011;7150;53.514;9.988;2024-01-30T14:53:56;10.60;;;5.10;;